Time;durP1;ratioP1;P1;durP2;ratioP2;P2;SDS_P1;SDS_P2;PMS_P1;PMS_P2;Temp;Humidity;BMP_temperature;BMP_pressure;BME280_temperature;BME280_humidity;BME280_pressure;Samples;Min_cycle;Max_cycle;Signal;HPM_P1;HPM_P2
2024/02/04 00:01:57;;;;;;;5.65;2.25;;;;;;;;;;5083460;28;20028;-56
2024/02/04 00:04:24;;;;;;;6.40;3.38;;;;;;;;;;5086533;28;20019;-61
2024/02/04 00:06:50;;;;;;;8.10;4.38;;;;;;;;;;5081515;28;20308;-56
2024/02/04 00:09:18;;;;;;;5.72;4.03;;;;;;;;;;5077105;28;20309;-64
2024/02/04 00:11:45;;;;;;;6.53;3.38;;;;;;;;;;5082679;28;20084;-54
2024/02/04 00:14:11;;;;;;;6.40;3.20;;;;;;;;;;5083168;28;20320;-58
2024/02/04 00:16:38;;;;;;;5.90;2.53;;;;;;;;;;5079904;28;20060;-59
2024/02/04 00:19:04;;;;;;;6.25;2.60;;;;;;;;;;5077272;28;20033;-56
2024/02/04 00:21:31;;;;;;;7.07;3.25;;;;;;;;;;5067136;28;20032;-56
2024/02/04 00:23:57;;;;;;;3.72;2.80;;;;;;;;;;5079390;28;20134;-56
2024/02/04 00:26:24;;;;;;;4.07;2.70;;;;;;;;;;5082488;28;20028;-58
2024/02/04 00:28:51;;;;;;;6.95;2.95;;;;;;;;;;5084043;28;20021;-57
2024/02/04 00:31:17;;;;;;;5.15;2.78;;;;;;;;;;5082905;28;20020;-60
2024/02/04 00:33:44;;;;;;;5.43;2.78;;;;;;;;;;5077763;28;20024;-61
2024/02/04 00:36:10;;;;;;;3.97;2.60;;;;;;;;;;5082816;28;20020;-62
2024/02/04 00:38:37;;;;;;;5.22;2.80;;;;;;;;;;5082744;28;20059;-59
2024/02/04 00:41:04;;;;;;;8.25;3.20;;;;;;;;;;5081965;28;20035;-56
2024/02/04 00:43:30;;;;;;;5.93;3.03;;;;;;;;;;5081966;28;20127;-57
2024/02/04 00:46:00;;;;;;;4.85;3.20;;;;;;;;;;5086390;28;20151;-56
2024/02/04 00:48:26;;;;;;;6.90;3.63;;;;;;;;;;5077271;28;20341;-58
2024/02/04 00:50:53;;;;;;;6.50;3.67;;;;;;;;;;5075564;28;20288;-59
2024/02/04 00:53:19;;;;;;;6.53;4.05;;;;;;;;;;5079597;28;20025;-58
2024/02/04 00:55:46;;;;;;;9.38;3.90;;;;;;;;;;5079384;28;20084;-56
2024/02/04 00:58:12;;;;;;;5.53;3.90;;;;;;;;;;5080532;28;20040;-54
2024/02/04 01:00:39;;;;;;;6.40;3.92;;;;;;;;;;5082336;28;20188;-54
2024/02/04 01:03:05;;;;;;;6.65;4.05;;;;;;;;;;5064871;28;20329;-60
2024/02/04 01:05:32;;;;;;;7.15;4.55;;;;;;;;;;5079269;28;20271;-52
2024/02/04 01:07:59;;;;;;;8.32;4.47;;;;;;;;;;5083726;28;20013;-56
2024/02/04 01:10:26;;;;;;;7.22;5.22;;;;;;;;;;5085471;28;20092;-53
2024/02/04 01:12:52;;;;;;;10.88;6.70;;;;;;;;;;5085760;28;20024;-52
2024/02/04 01:15:19;;;;;;;9.68;7.03;;;;;;;;;;5081427;28;20087;-54
2024/02/04 01:17:46;;;;;;;11.13;6.38;;;;;;;;;;5082718;28;20025;-52
2024/02/04 01:20:12;;;;;;;9.35;6.47;;;;;;;;;;5076174;28;20066;-56
2024/02/04 01:22:39;;;;;;;9.48;6.95;;;;;;;;;;5083250;28;20092;-54
2024/02/04 01:25:06;;;;;;;8.02;7.22;;;;;;;;;;5081157;28;20019;-54
2024/02/04 01:27:33;;;;;;;9.27;6.47;;;;;;;;;;5084716;28;20247;-54
2024/02/04 01:29:59;;;;;;;11.10;7.07;;;;;;;;;;5084137;28;20025;-57
2024/02/04 01:32:26;;;;;;;8.95;6.10;;;;;;;;;;5085460;28;20021;-55
2024/02/04 01:34:52;;;;;;;8.70;5.28;;;;;;;;;;5085586;28;20031;-55
2024/02/04 01:37:19;;;;;;;8.55;5.70;;;;;;;;;;5080583;28;20208;-55
2024/02/04 01:39:46;;;;;;;5.95;4.72;;;;;;;;;;5074233;28;20032;-55
2024/02/04 01:42:12;;;;;;;8.73;5.63;;;;;;;;;;5065369;28;20025;-55
2024/02/04 01:44:39;;;;;;;6.43;4.70;;;;;;;;;;5064002;28;20111;-54
2024/02/04 01:47:06;;;;;;;9.27;5.00;;;;;;;;;;5065399;28;20378;-56
2024/02/04 01:49:32;;;;;;;5.07;4.45;;;;;;;;;;5065316;28;20013;-53
2024/02/04 01:51:59;;;;;;;6.57;4.18;;;;;;;;;;5065048;28;20110;-55
2024/02/04 01:54:26;;;;;;;8.23;4.88;;;;;;;;;;5074056;28;20032;-59
2024/02/04 01:56:53;;;;;;;9.82;4.75;;;;;;;;;;5077737;28;20032;-58
2024/02/04 01:59:20;;;;;;;7.15;4.82;;;;;;;;;;5083076;28;20053;-59
2024/02/04 02:01:48;;;;;;;8.52;4.35;;;;;;;;;;5080143;28;20036;-61
2024/02/04 02:04:14;;;;;;;9.82;5.45;;;;;;;;;;5078963;28;20209;-62
2024/02/04 02:06:43;;;;;;;10.85;4.82;;;;;;;;;;5079863;28;20028;-58
2024/02/04 02:09:12;;;;;;;6.60;4.00;;;;;;;;;;5083242;28;20017;-57
2024/02/04 02:11:43;;;;;;;6.72;4.80;;;;;;;;;;5082036;28;20020;-56
2024/02/04 02:14:14;;;;;;;6.95;4.50;;;;;;;;;;5078143;28;20021;-59
2024/02/04 02:16:41;;;;;;;8.38;5.28;;;;;;;;;;5078657;28;20051;-56
2024/02/04 02:19:16;;;;;;;10.95;5.68;;;;;;;;;;5081895;28;20023;-57
2024/02/04 02:21:42;;;;;;;7.40;5.20;;;;;;;;;;5082113;28;20368;-58
2024/02/04 02:24:18;;;;;;;7.05;4.75;;;;;;;;;;5077887;28;20028;-55
2024/02/04 02:26:45;;;;;;;8.38;5.30;;;;;;;;;;5083330;28;20024;-58
2024/02/04 02:29:12;;;;;;;13.27;6.38;;;;;;;;;;5084831;28;20020;-55
2024/02/04 02:31:39;;;;;;;8.95;5.68;;;;;;;;;;5084703;28;20028;-61
2024/02/04 02:34:05;;;;;;;8.27;5.30;;;;;;;;;;5083635;28;20021;-58
2024/02/04 02:36:37;;;;;;;6.97;4.68;;;;;;;;;;5084904;28;20092;-56
2024/02/04 02:39:30;;;;;;;7.82;4.80;;;;;;;;;;5083730;28;20079;-56
2024/02/04 02:42:00;;;;;;;6.68;4.90;;;;;;;;;;5060584;28;20050;-56
2024/02/04 02:44:27;;;;;;;9.02;5.60;;;;;;;;;;5084177;28;20044;-60
2024/02/04 02:46:55;;;;;;;7.32;4.95;;;;;;;;;;5084026;28;20036;-57
2024/02/04 02:49:24;;;;;;;7.40;4.90;;;;;;;;;;5084084;28;20325;-55
2024/02/04 02:51:50;;;;;;;7.40;5.25;;;;;;;;;;5084026;28;20091;-58
2024/02/04 02:54:17;;;;;;;6.10;4.65;;;;;;;;;;5083908;28;20012;-56
2024/02/04 02:56:44;;;;;;;7.30;4.65;;;;;;;;;;5084071;28;20092;-56
2024/02/04 02:59:10;;;;;;;6.50;4.88;;;;;;;;;;5084126;28;20072;-54
2024/02/04 03:01:40;;;;;;;8.05;4.38;;;;;;;;;;5084439;28;20024;-55
2024/02/04 03:04:07;;;;;;;6.47;4.70;;;;;;;;;;5084014;28;20030;-54
2024/02/04 03:06:33;;;;;;;5.22;4.40;;;;;;;;;;5084435;28;20028;-58
2024/02/04 03:09:00;;;;;;;7.07;4.20;;;;;;;;;;5083808;28;20082;-59
2024/02/04 03:11:27;;;;;;;5.78;3.88;;;;;;;;;;5084477;28;20087;-56
2024/02/04 03:13:53;;;;;;;7.15;4.28;;;;;;;;;;5083911;28;20189;-55
2024/02/04 03:16:20;;;;;;;5.72;3.97;;;;;;;;;;5084213;28;20225;-55
2024/02/04 03:18:46;;;;;;;6.05;4.03;;;;;;;;;;5083822;28;20123;-53
2024/02/04 03:21:17;;;;;;;5.82;4.10;;;;;;;;;;5083355;28;20020;-58
2024/02/04 03:23:44;;;;;;;5.45;4.30;;;;;;;;;;5083711;28;20028;-58
2024/02/04 03:26:11;;;;;;;6.55;3.95;;;;;;;;;;5084063;28;20020;-57
2024/02/04 03:28:38;;;;;;;7.00;4.20;;;;;;;;;;5083859;28;20028;-54
2024/02/04 03:31:05;;;;;;;7.22;3.67;;;;;;;;;;5083985;28;20020;-53
2024/02/04 03:33:31;;;;;;;6.00;4.00;;;;;;;;;;5083773;28;20024;-54
2024/02/04 03:35:58;;;;;;;7.22;4.65;;;;;;;;;;5084153;28;20205;-57
2024/02/04 03:38:24;;;;;;;9.45;4.07;;;;;;;;;;5083531;28;20055;-56
2024/02/04 03:40:51;;;;;;;5.55;3.80;;;;;;;;;;5084051;28;20020;-56
2024/02/04 03:43:17;;;;;;;9.00;3.70;;;;;;;;;;5082305;28;20029;-56
2024/02/04 03:45:45;;;;;;;5.38;3.70;;;;;;;;;;5083701;28;20040;-53
2024/02/04 03:48:11;;;;;;;6.07;3.97;;;;;;;;;;5083611;28;20083;-51
2024/02/04 03:50:38;;;;;;;6.97;3.58;;;;;;;;;;5083759;28;20047;-54
2024/02/04 03:53:04;;;;;;;7.10;3.92;;;;;;;;;;5083424;28;20031;-56
2024/02/04 03:55:31;;;;;;;5.60;3.50;;;;;;;;;;5083808;28;20020;-52
2024/02/04 03:57:58;;;;;;;7.57;3.92;;;;;;;;;;5083439;28;20078;-55
2024/02/04 04:00:25;;;;;;;6.53;3.92;;;;;;;;;;5083455;28;20020;-54
2024/02/04 04:02:52;;;;;;;7.30;3.85;;;;;;;;;;5083511;28;20028;-54
2024/02/04 04:05:18;;;;;;;7.90;4.15;;;;;;;;;;5083605;28;20016;-56
2024/02/04 04:07:45;;;;;;;5.50;3.50;;;;;;;;;;5083359;28;20024;-56
2024/02/04 04:10:11;;;;;;;6.55;3.97;;;;;;;;;;5083556;28;20304;-56
2024/02/04 04:12:38;;;;;;;6.63;4.07;;;;;;;;;;5083462;28;20317;-56
2024/02/04 04:15:05;;;;;;;6.45;4.15;;;;;;;;;;5083486;28;20345;-55
2024/02/04 04:17:31;;;;;;;6.90;3.70;;;;;;;;;;5083283;28;20064;-54
2024/02/04 04:19:58;;;;;;;7.03;4.00;;;;;;;;;;5083418;28;20079;-56
2024/02/04 04:22:25;;;;;;;8.13;4.15;;;;;;;;;;5083213;28;20033;-53
2024/02/04 04:24:51;;;;;;;7.40;3.67;;;;;;;;;;5083215;28;20036;-52
2024/02/04 04:27:18;;;;;;;5.90;4.10;;;;;;;;;;5083280;28;20028;-58
2024/02/04 04:29:44;;;;;;;5.50;4.00;;;;;;;;;;5083315;28;20032;-54
2024/02/04 04:32:11;;;;;;;9.90;4.15;;;;;;;;;;5083075;28;20055;-55
2024/02/04 04:34:38;;;;;;;10.52;4.53;;;;;;;;;;5086866;28;20297;-54
2024/02/04 04:37:04;;;;;;;8.75;4.57;;;;;;;;;;5086752;28;20037;-53
2024/02/04 04:39:31;;;;;;;6.72;4.30;;;;;;;;;;5086546;28;20023;-52
2024/02/04 04:41:57;;;;;;;8.60;4.47;;;;;;;;;;5085469;28;20224;-56
2024/02/04 04:44:24;;;;;;;8.32;4.50;;;;;;;;;;5086481;28;20052;-55
2024/02/04 04:46:51;;;;;;;10.07;4.95;;;;;;;;;;5086333;28;20224;-53
2024/02/04 04:49:17;;;;;;;9.73;5.13;;;;;;;;;;5086567;28;20027;-56
2024/02/04 04:51:47;;;;;;;6.82;4.80;;;;;;;;;;5086447;28;20036;-52
2024/02/04 04:54:13;;;;;;;7.18;4.72;;;;;;;;;;5086220;28;20008;-56
2024/02/04 04:56:41;;;;;;;5.90;4.53;;;;;;;;;;5086368;28;20028;-56
2024/02/04 04:59:07;;;;;;;6.70;5.13;;;;;;;;;;5086289;28;20028;-52
2024/02/04 05:01:34;;;;;;;8.32;5.00;;;;;;;;;;5086698;28;20028;-52
2024/02/04 05:04:01;;;;;;;9.38;5.65;;;;;;;;;;5086430;28;20029;-53
2024/02/04 05:06:28;;;;;;;6.43;4.63;;;;;;;;;;5086669;28;20051;-52
2024/02/04 05:08:54;;;;;;;7.82;5.25;;;;;;;;;;5086041;28;20020;-59
2024/02/04 05:11:21;;;;;;;10.43;5.07;;;;;;;;;;5086615;28;20024;-53
2024/02/04 05:13:47;;;;;;;8.50;5.15;;;;;;;;;;5086062;28;20025;-53
2024/02/04 05:16:14;;;;;;;7.30;5.18;;;;;;;;;;5086296;28;20017;-52
2024/02/04 05:18:41;;;;;;;7.72;5.38;;;;;;;;;;5086099;28;20032;-51
2024/02/04 05:21:07;;;;;;;11.27;5.93;;;;;;;;;;5086339;28;20079;-52
2024/02/04 05:23:34;;;;;;;8.48;4.88;;;;;;;;;;5085761;28;20382;-56
2024/02/04 05:26:04;;;;;;;7.80;5.38;;;;;;;;;;5086127;28;20024;-55
2024/02/04 05:28:31;;;;;;;9.13;5.18;;;;;;;;;;5085886;28;20016;-58
2024/02/04 05:30:57;;;;;;;8.43;5.03;;;;;;;;;;5085986;28;20025;-52
2024/02/04 05:33:24;;;;;;;9.63;5.00;;;;;;;;;;5085793;28;20031;-52
2024/02/04 05:35:51;;;;;;;6.35;4.78;;;;;;;;;;5086042;28;20304;-54
2024/02/04 05:38:17;;;;;;;8.90;5.03;;;;;;;;;;5085476;28;20035;-53
2024/02/04 05:40:44;;;;;;;8.40;5.00;;;;;;;;;;5085891;28;20024;-52
2024/02/04 05:43:11;;;;;;;7.47;5.22;;;;;;;;;;5085346;28;20024;-55
2024/02/04 05:45:41;;;;;;;9.75;5.20;;;;;;;;;;5084814;28;20020;-57
2024/02/04 05:48:08;;;;;;;9.48;5.05;;;;;;;;;;5085382;28;20012;-55
2024/02/04 05:50:35;;;;;;;8.48;4.85;;;;;;;;;;5085608;28;20028;-51
2024/02/04 05:53:01;;;;;;;10.68;5.32;;;;;;;;;;5085133;28;20028;-51
2024/02/04 05:55:28;;;;;;;9.63;5.07;;;;;;;;;;5085461;28;20020;-54
2024/02/04 05:57:54;;;;;;;9.00;5.10;;;;;;;;;;5085193;28;20020;-54
2024/02/04 06:00:21;;;;;;;7.47;5.20;;;;;;;;;;5085322;28;20067;-53
2024/02/04 06:02:47;;;;;;;6.28;4.57;;;;;;;;;;5085108;28;20097;-54
2024/02/04 06:05:14;;;;;;;8.70;4.85;;;;;;;;;;5085095;28;20049;-52
2024/02/04 06:07:43;;;;;;;6.25;5.22;;;;;;;;;;5085022;28;20028;-56
2024/02/04 06:10:10;;;;;;;6.18;4.50;;;;;;;;;;5085107;28;20070;-57
2024/02/04 06:12:40;;;;;;;7.28;5.00;;;;;;;;;;5085182;28;20032;-54
2024/02/04 06:15:12;;;;;;;7.57;5.07;;;;;;;;;;5084878;28;20084;-55
2024/02/04 06:17:38;;;;;;;;;;;;;;;;;;5085318;28;20020;-57
2024/02/04 06:20:06;;;;;;;5.78;4.68;;;;;;;;;;5084833;28;19988;-56
2024/02/04 06:22:33;;;;;;;5.88;4.60;;;;;;;;;;5084608;28;20044;-55
2024/02/04 06:24:59;;;;;;;8.40;4.70;;;;;;;;;;5084798;28;20020;-55
2024/02/04 06:27:26;;;;;;;7.18;4.78;;;;;;;;;;5084633;28;20025;-56
2024/02/04 06:29:53;;;;;;;6.75;4.70;;;;;;;;;;5084536;28;20020;-54
2024/02/04 06:32:24;;;;;;;5.65;4.90;;;;;;;;;;5084652;28;20023;-57
2024/02/04 06:34:51;;;;;;;9.10;4.57;;;;;;;;;;5084511;28;20035;-53
2024/02/04 06:37:17;;;;;;;10.35;4.90;;;;;;;;;;5084320;28;20212;-57
2024/02/04 06:39:44;;;;;;;7.10;4.85;;;;;;;;;;5084593;28;20299;-56
2024/02/04 06:42:11;;;;;;;6.70;4.68;;;;;;;;;;5084404;28;20039;-57
2024/02/04 06:44:38;;;;;;;6.28;4.55;;;;;;;;;;5084134;28;20044;-56
2024/02/04 06:47:04;;;;;;;7.75;5.20;;;;;;;;;;5084219;28;20091;-54
2024/02/04 06:49:31;;;;;;;9.32;4.85;;;;;;;;;;5084252;28;20017;-56
2024/02/04 06:51:58;;;;;;;7.70;4.60;;;;;;;;;;5084010;28;20024;-58
2024/02/04 06:54:24;;;;;;;7.05;4.95;;;;;;;;;;5084117;28;20023;-56
2024/02/04 06:56:53;;;;;;;6.40;4.60;;;;;;;;;;5084179;28;20347;-58
2024/02/04 06:59:19;;;;;;;7.85;5.13;;;;;;;;;;5083974;28;20259;-58
2024/02/04 07:01:46;;;;;;;9.52;5.60;;;;;;;;;;5084167;28;20025;-57
2024/02/04 07:04:12;;;;;;;8.82;5.40;;;;;;;;;;5084055;28;20020;-56
2024/02/04 07:06:39;;;;;;;8.57;5.38;;;;;;;;;;5083951;28;20145;-56
2024/02/04 07:09:06;;;;;;;8.85;6.18;;;;;;;;;;5083993;28;20031;-53
2024/02/04 07:11:32;;;;;;;10.25;6.68;;;;;;;;;;5084497;28;20020;-52
2024/02/04 07:14:00;;;;;;;10.00;6.70;;;;;;;;;;5084001;28;20016;-58
2024/02/04 07:16:27;;;;;;;12.63;7.25;;;;;;;;;;5084358;28;20024;-56
2024/02/04 07:18:53;;;;;;;11.07;7.07;;;;;;;;;;5083910;28;20025;-56
2024/02/04 07:21:20;;;;;;;14.18;8.15;;;;;;;;;;5084397;28;20075;-53
2024/02/04 07:23:47;;;;;;;10.88;7.25;;;;;;;;;;5083739;28;20031;-56
2024/02/04 07:26:13;;;;;;;8.55;7.45;;;;;;;;;;5083675;28;20020;-57
2024/02/04 07:28:40;;;;;;;12.35;8.40;;;;;;;;;;5083826;28;20025;-52
2024/02/04 07:31:07;;;;;;;12.27;8.57;;;;;;;;;;5084078;28;20012;-58
2024/02/04 07:33:33;;;;;;;15.65;8.25;;;;;;;;;;5083853;28;20066;-53
2024/02/04 07:36:00;;;;;;;11.55;8.50;;;;;;;;;;5084155;28;20044;-53
2024/02/04 07:38:26;;;;;;;15.70;9.68;;;;;;;;;;5083593;28;20030;-58
2024/02/04 07:40:55;;;;;;;13.40;9.00;;;;;;;;;;5084105;28;20024;-53
2024/02/04 07:43:22;;;;;;;12.98;9.38;;;;;;;;;;5083636;28;20056;-53
2024/02/04 07:45:49;;;;;;;12.40;9.38;;;;;;;;;;5083770;28;20024;-56
2024/02/04 07:48:16;;;;;;;15.55;9.55;;;;;;;;;;5083668;28;20036;-54
2024/02/04 07:50:42;;;;;;;13.77;9.63;;;;;;;;;;5083787;28;20027;-52
2024/02/04 07:53:09;;;;;;;16.48;9.85;;;;;;;;;;5083437;28;20024;-56
2024/02/04 07:55:35;;;;;;;16.77;10.07;;;;;;;;;;5083900;28;20020;-50
2024/02/04 07:58:02;;;;;;;13.75;10.23;;;;;;;;;;5083525;28;20027;-56
2024/02/04 08:00:29;;;;;;;15.70;9.82;;;;;;;;;;5083803;28;20016;-56
2024/02/04 08:02:56;;;;;;;15.02;10.60;;;;;;;;;;5083526;28;20051;-53
2024/02/04 08:05:22;;;;;;;15.07;10.02;;;;;;;;;;5083655;28;20047;-56
2024/02/04 08:07:49;;;;;;;11.50;8.95;;;;;;;;;;5084239;28;20024;-58
2024/02/04 08:10:16;;;;;;;15.05;9.35;;;;;;;;;;5087313;28;20023;-51
2024/02/04 08:12:42;;;;;;;13.93;9.18;;;;;;;;;;5080801;28;20016;-59
2024/02/04 08:15:09;;;;;;;14.57;9.05;;;;;;;;;;5080759;28;20244;-57
2024/02/04 08:17:36;;;;;;;13.05;8.65;;;;;;;;;;5077824;28;20043;-58
2024/02/04 08:20:04;;;;;;;16.45;9.50;;;;;;;;;;5076087;28;20092;-59
2024/02/04 08:22:31;;;;;;;14.38;8.82;;;;;;;;;;5067184;28;20025;-60
2024/02/04 08:24:57;;;;;;;13.70;8.88;;;;;;;;;;5067116;28;20025;-62
2024/02/04 08:27:24;;;;;;;12.18;7.75;;;;;;;;;;5066960;28;20083;-60
2024/02/04 08:29:50;;;;;;;13.57;8.60;;;;;;;;;;5066826;28;20031;-60
2024/02/04 08:32:17;;;;;;;14.23;8.30;;;;;;;;;;5066986;28;20067;-59
2024/02/04 08:34:43;;;;;;;13.07;7.80;;;;;;;;;;5066931;28;20024;-59
2024/02/04 08:37:10;;;;;;;11.13;7.60;;;;;;;;;;5066683;28;20021;-61
2024/02/04 08:39:37;;;;;;;11.07;7.65;;;;;;;;;;5066903;28;20037;-55
2024/02/04 08:42:03;;;;;;;12.65;7.85;;;;;;;;;;5066684;28;20047;-56
2024/02/04 08:44:30;;;;;;;11.05;7.53;;;;;;;;;;5066566;28;20045;-58
2024/02/04 08:46:57;;;;;;;13.70;7.43;;;;;;;;;;5066509;28;20066;-60
2024/02/04 08:49:23;;;;;;;12.68;7.05;;;;;;;;;;5066674;28;20024;-56
2024/02/04 08:51:50;;;;;;;10.80;7.03;;;;;;;;;;5079964;28;20213;-60
2024/02/04 08:54:17;;;;;;;13.48;7.82;;;;;;;;;;5085257;28;20017;-59
2024/02/04 08:56:44;;;;;;;10.73;7.28;;;;;;;;;;5076804;28;20066;-58
2024/02/04 08:59:10;;;;;;;10.57;7.35;;;;;;;;;;5086362;28;20243;-57
2024/02/04 09:01:37;;;;;;;12.52;7.45;;;;;;;;;;5086722;28;20348;-59
2024/02/04 09:04:03;;;;;;;14.02;7.47;;;;;;;;;;5086348;28;20031;-58
2024/02/04 09:06:30;;;;;;;10.27;7.55;;;;;;;;;;5086724;28;20024;-57
2024/02/04 09:08:57;;;;;;;10.85;7.50;;;;;;;;;;5086047;28;20021;-60
2024/02/04 09:11:24;;;;;;;11.35;7.85;;;;;;;;;;5086659;28;20021;-63
2024/02/04 09:13:51;;;;;;;11.23;8.05;;;;;;;;;;5086409;28;20087;-60
2024/02/04 09:16:17;;;;;;;13.10;8.18;;;;;;;;;;5086426;28;20025;-60
2024/02/04 09:18:45;;;;;;;13.57;8.50;;;;;;;;;;5085569;28;20051;-62
2024/02/04 09:21:12;;;;;;;12.88;8.43;;;;;;;;;;5085772;28;20320;-63
2024/02/04 09:23:38;;;;;;;13.15;8.25;;;;;;;;;;5085801;28;20243;-61
2024/02/04 09:26:05;;;;;;;11.88;8.27;;;;;;;;;;5086220;28;20032;-60
2024/02/04 09:28:32;;;;;;;11.45;8.93;;;;;;;;;;5085950;28;20027;-60
2024/02/04 09:30:58;;;;;;;12.52;8.95;;;;;;;;;;5072920;28;20020;-60
2024/02/04 09:33:25;;;;;;;13.20;9.13;;;;;;;;;;5065819;28;20084;-57
2024/02/04 09:35:52;;;;;;;12.68;8.88;;;;;;;;;;5065980;28;20259;-59
2024/02/04 09:38:18;;;;;;;14.55;8.75;;;;;;;;;;5065522;28;20215;-60
2024/02/04 09:40:45;;;;;;;14.82;9.18;;;;;;;;;;5065922;28;20194;-61
2024/02/04 09:43:11;;;;;;;13.98;9.80;;;;;;;;;;5065406;28;20025;-59
2024/02/04 09:45:39;;;;;;;13.32;9.10;;;;;;;;;;5065630;28;20206;-57
2024/02/04 09:48:07;;;;;;;11.35;9.10;;;;;;;;;;5065510;28;20021;-57
2024/02/04 09:50:33;;;;;;;13.73;8.95;;;;;;;;;;5065590;28;20028;-57
2024/02/04 09:53:00;;;;;;;13.95;8.63;;;;;;;;;;5065237;28;20025;-60
2024/02/04 09:55:27;;;;;;;13.10;8.75;;;;;;;;;;5065586;28;20025;-61
2024/02/04 09:57:54;;;;;;;16.88;9.35;;;;;;;;;;5065160;28;20088;-61
2024/02/04 10:00:21;;;;;;;13.80;9.10;;;;;;;;;;5065383;28;20205;-60
2024/02/04 10:02:48;;;;;;;15.23;9.10;;;;;;;;;;5065220;28;20025;-60
2024/02/04 10:05:16;;;;;;;12.38;8.77;;;;;;;;;;5065361;28;20028;-64
2024/02/04 10:07:42;;;;;;;11.68;8.90;;;;;;;;;;5064835;28;20084;-60
2024/02/04 10:10:10;;;;;;;15.18;9.43;;;;;;;;;;5065295;28;20028;-60
2024/02/04 10:12:38;;;;;;;18.05;9.23;;;;;;;;;;5064883;28;20270;-61
2024/02/04 10:15:06;;;;;;;10.85;8.88;;;;;;;;;;5064840;28;20079;-62
2024/02/04 10:17:33;;;;;;;11.30;8.82;;;;;;;;;;5064836;28;20035;-61
2024/02/04 10:19:59;;;;;;;12.93;8.77;;;;;;;;;;5064945;28;20305;-59
2024/02/04 10:22:28;;;;;;;16.02;9.18;;;;;;;;;;5064684;28;20020;-60
2024/02/04 10:24:54;;;;;;;13.82;8.60;;;;;;;;;;5064780;28;20028;-61
2024/02/04 10:27:21;;;;;;;14.07;8.68;;;;;;;;;;5064691;28;20071;-60
2024/02/04 10:29:47;;;;;;;13.75;8.27;;;;;;;;;;5064659;28;20021;-59
2024/02/04 10:32:14;;;;;;;11.77;8.00;;;;;;;;;;5064407;28;20033;-60
2024/02/04 10:34:41;;;;;;;15.13;8.63;;;;;;;;;;5064680;28;20067;-62
2024/02/04 10:37:07;;;;;;;13.13;7.60;;;;;;;;;;5064490;28;20028;-59
2024/02/04 10:39:34;;;;;;;12.77;8.07;;;;;;;;;;5064418;28;20104;-60
2024/02/04 10:42:03;;;;;;;15.27;8.30;;;;;;;;;;5064422;28;20033;-60
2024/02/04 10:44:32;;;;;;;11.32;8.05;;;;;;;;;;5064232;28;20063;-59
2024/02/04 10:47:01;;;;;;;13.20;8.32;;;;;;;;;;5064369;28;20056;-60
2024/02/04 10:49:28;;;;;;;10.23;7.80;;;;;;;;;;5064340;28;20309;-59
2024/02/04 10:51:57;;;;;;;12.27;8.32;;;;;;;;;;5064097;28;20028;-56
2024/02/04 10:54:26;;;;;;;10.82;7.65;;;;;;;;;;5064121;28;20017;-59
2024/02/04 10:57:05;;;;;;;13.88;7.63;;;;;;;;;;5064064;28;20035;-58
2024/02/04 10:59:32;;;;;;;11.48;7.60;;;;;;;;;;5064040;28;20058;-59
2024/02/04 11:01:59;;;;;;;18.50;8.13;;;;;;;;;;5064010;28;20070;-61
2024/02/04 11:04:25;;;;;;;18.92;8.43;;;;;;;;;;5064055;28;20016;-62
2024/02/04 11:06:54;;;;;;;18.13;8.38;;;;;;;;;;5063783;28;20051;-61
2024/02/04 11:09:21;;;;;;;11.82;7.88;;;;;;;;;;5064061;28;20089;-60
2024/02/04 11:11:47;;;;;;;10.00;7.43;;;;;;;;;;5064035;28;20032;-60
2024/02/04 11:14:15;;;;;;;13.25;6.72;;;;;;;;;;5063743;28;20021;-59
2024/02/04 11:17:00;;;;;;;9.20;7.20;;;;;;;;;;5063992;28;20036;-61
2024/02/04 11:19:43;;;;;;;15.27;7.30;;;;;;;;;;5063739;28;20107;-59
2024/02/04 11:22:42;;;;;;;11.45;7.18;;;;;;;;;;5063838;28;20028;-62
2024/02/04 11:25:15;;;;;;;13.77;7.30;;;;;;;;;;5030695;28;20041;-61
2024/02/04 11:27:42;;;;;;;13.30;7.85;;;;;;;;;;5063591;28;20040;-60
2024/02/04 11:30:09;;;;;;;13.02;7.38;;;;;;;;;;5064001;28;20351;-61
2024/02/04 11:32:36;;;;;;;11.65;7.15;;;;;;;;;;5063688;28;20036;-61
2024/02/04 11:35:07;;;;;;;15.43;7.50;;;;;;;;;;5063785;28;20025;-60
2024/02/04 11:37:34;;;;;;;14.05;7.55;;;;;;;;;;5063623;28;20032;-61
2024/02/04 11:40:00;;;;;;;11.27;7.25;;;;;;;;;;5063782;28;20067;-62
2024/02/04 11:42:33;;;;;;;12.55;6.72;;;;;;;;;;5064046;28;20217;-60
2024/02/04 11:45:09;;;;;;;9.63;6.80;;;;;;;;;;5067632;28;20052;-60
2024/02/04 11:47:35;;;;;;;10.77;6.82;;;;;;;;;;5067680;28;20028;-59
2024/02/04 11:50:03;;;;;;;11.32;6.85;;;;;;;;;;5067581;28;20193;-59
2024/02/04 11:52:29;;;;;;;12.27;7.50;;;;;;;;;;5067565;28;20069;-60
2024/02/04 11:54:56;;;;;;;13.68;7.10;;;;;;;;;;5067781;28;20047;-61
2024/02/04 11:57:23;;;;;;;12.07;7.25;;;;;;;;;;5067428;28;20171;-61
2024/02/04 11:59:51;;;;;;;10.60;7.47;;;;;;;;;;5067628;28;20032;-60
2024/02/04 12:02:18;;;;;;;13.25;7.35;;;;;;;;;;5067647;28;20020;-60
2024/02/04 12:04:46;;;;;;;12.88;7.05;;;;;;;;;;5067329;28;20025;-61
2024/02/04 12:07:14;;;;;;;13.05;7.40;;;;;;;;;;5067155;28;20325;-62
2024/02/04 12:09:41;;;;;;;15.45;7.70;;;;;;;;;;5067196;28;20031;-60
2024/02/04 12:12:08;;;;;;;11.75;7.03;;;;;;;;;;5067135;28;20333;-62
2024/02/04 12:14:40;;;;;;;14.45;7.40;;;;;;;;;;5067191;28;20017;-63
2024/02/04 12:17:13;;;;;;;11.73;7.28;;;;;;;;;;5067188;28;20199;-61
2024/02/04 12:19:40;;;;;;;9.57;7.20;;;;;;;;;;5067113;28;20025;-59
2024/02/04 12:22:09;;;;;;;14.45;8.00;;;;;;;;;;5067024;28;20095;-61
2024/02/04 12:24:37;;;;;;;11.65;7.20;;;;;;;;;;5066962;28;20025;-62
2024/02/04 12:27:04;;;;;;;12.13;7.07;;;;;;;;;;5067275;28;20029;-61
2024/02/04 12:29:31;;;;;;;15.35;7.22;;;;;;;;;;5066923;28;20092;-63
2024/02/04 12:32:05;;;;;;;16.88;7.70;;;;;;;;;;5066789;28;20040;-59
2024/02/04 12:34:36;;;;;;;12.90;7.68;;;;;;;;;;5066823;28;20302;-60
2024/02/04 12:37:03;;;;;;;13.20;7.50;;;;;;;;;;5066749;28;20028;-62
2024/02/04 12:39:32;;;;;;;13.02;7.95;;;;;;;;;;5066541;28;20021;-59
2024/02/04 12:41:59;;;;;;;12.07;7.50;;;;;;;;;;5066680;28;20028;-59
2024/02/04 12:44:26;;;;;;;11.40;7.40;;;;;;;;;;5066421;28;20049;-60
2024/02/04 12:46:53;;;;;;;16.70;7.43;;;;;;;;;;5066370;28;20040;-59
2024/02/04 12:49:21;;;;;;;14.95;7.78;;;;;;;;;;5066482;28;20092;-62
2024/02/04 12:51:48;;;;;;;12.68;7.68;;;;;;;;;;5066390;28;20070;-62
2024/02/04 12:54:15;;;;;;;14.52;8.15;;;;;;;;;;5066055;28;20213;-60
2024/02/04 12:56:54;;;;;;;13.05;7.45;;;;;;;;;;5066479;28;20308;-61
2024/02/04 12:59:31;;;;;;;12.68;7.75;;;;;;;;;;5066165;28;20043;-59
2024/02/04 13:02:15;;;;;;;13.70;7.95;;;;;;;;;;5066416;28;20032;-61
2024/02/04 13:04:43;;;;;;;13.00;8.20;;;;;;;;;;5066140;28;20052;-60
2024/02/04 13:07:14;;;;;;;16.63;8.60;;;;;;;;;;5066117;28;20029;-61
2024/02/04 13:09:41;;;;;;;14.35;8.48;;;;;;;;;;5066217;28;20067;-59
2024/02/04 13:12:11;;;;;;;14.00;8.98;;;;;;;;;;5065998;28;20221;-61
2024/02/04 13:14:38;;;;;;;12.98;8.27;;;;;;;;;;5066093;28;20019;-61
2024/02/04 13:17:05;;;;;;;12.70;8.80;;;;;;;;;;5066071;28;20033;-60
2024/02/04 13:19:38;;;;;;;15.50;9.82;;;;;;;;;;5065878;28;20017;-60
2024/02/04 13:22:14;;;;;;;13.73;9.07;;;;;;;;;;5066020;28;20347;-60
2024/02/04 13:24:41;;;;;;;14.52;9.80;;;;;;;;;;5065829;28;20029;-60
2024/02/04 13:27:07;;;;;;;13.95;10.70;;;;;;;;;;5065819;28;20317;-62
2024/02/04 13:29:35;;;;;;;13.10;9.63;;;;;;;;;;5065857;28;20035;-61
2024/02/04 13:32:02;;;;;;;12.93;9.32;;;;;;;;;;5065514;28;20025;-60
2024/02/04 13:34:28;;;;;;;13.55;9.38;;;;;;;;;;5065790;28;20036;-60
2024/02/04 13:36:55;;;;;;;12.27;8.93;;;;;;;;;;5065667;28;20029;-59
2024/02/04 13:39:22;;;;;;;15.38;9.63;;;;;;;;;;5065431;28;20305;-60
2024/02/04 13:41:49;;;;;;;12.63;9.20;;;;;;;;;;5065761;28;20044;-60
2024/02/04 13:44:15;;;;;;;12.70;9.25;;;;;;;;;;5065381;28;20115;-60
2024/02/04 13:46:42;;;;;;;13.07;9.35;;;;;;;;;;5065525;28;20247;-60
2024/02/04 13:49:11;;;;;;;15.70;9.02;;;;;;;;;;5065471;28;20046;-59
2024/02/04 13:51:38;;;;;;;10.77;8.88;;;;;;;;;;5065796;28;20031;-59
2024/02/04 13:54:05;;;;;;;11.15;9.10;;;;;;;;;;5065187;28;20028;-60
2024/02/04 13:56:33;;;;;;;15.75;9.95;;;;;;;;;;5065801;28;20036;-60
2024/02/04 13:58:59;;;;;;;14.45;9.82;;;;;;;;;;5065148;28;20029;-60
2024/02/04 14:01:26;;;;;;;14.20;9.25;;;;;;;;;;5064985;28;20017;-59
2024/02/04 14:03:52;;;;;;;14.20;9.73;;;;;;;;;;5065228;28;20033;-58
2024/02/04 14:06:19;;;;;;;14.57;9.70;;;;;;;;;;5064824;28;20029;-60
2024/02/04 14:08:46;;;;;;;12.15;9.45;;;;;;;;;;5064922;28;20021;-61
2024/02/04 14:11:12;;;;;;;12.77;9.55;;;;;;;;;;5065359;28;20044;-58
2024/02/04 14:13:39;;;;;;;14.27;9.82;;;;;;;;;;5064990;28;20045;-60
2024/02/04 14:16:06;;;;;;;12.95;9.55;;;;;;;;;;5065227;28;20028;-60
2024/02/04 14:18:32;;;;;;;13.00;9.38;;;;;;;;;;5064802;28;20244;-60
2024/02/04 14:20:59;;;;;;;13.88;9.40;;;;;;;;;;5065211;28;20182;-59
2024/02/04 14:23:25;;;;;;;12.70;8.80;;;;;;;;;;5064788;28;20350;-58
2024/02/04 14:25:52;;;;;;;15.25;9.80;;;;;;;;;;5064922;28;20100;-58
2024/02/04 14:28:19;;;;;;;12.95;9.63;;;;;;;;;;5064669;28;20111;-58
2024/02/04 14:30:46;;;;;;;13.63;9.38;;;;;;;;;;5064956;28;20043;-58
2024/02/04 14:33:12;;;;;;;15.63;9.00;;;;;;;;;;5064474;28;20028;-59
2024/02/04 14:35:39;;;;;;;11.52;8.25;;;;;;;;;;5064910;28;20052;-58
2024/02/04 14:38:06;;;;;;;12.02;9.10;;;;;;;;;;5064546;28;20262;-60